sensor_id;sensor_type;location;lat;lon;timestamp;temperature;humidity
59075;DHT22;44860;53.020;6.738;2022-12-31T00:01:15;12.20;99.90
59075;DHT22;44860;53.020;6.738;2022-12-31T00:03:42;12.10;99.90
59075;DHT22;44860;53.020;6.738;2022-12-31T00:08:38;12.20;99.90
59075;DHT22;44860;53.020;6.738;2022-12-31T00:11:04;12.20;99.90
59075;DHT22;44860;53.020;6.738;2022-12-31T00:13:29;12.20;99.90
59075;DHT22;44860;53.020;6.738;2022-12-31T00:16:08;12.10;99.90
59075;DHT22;44860;53.020;6.738;2022-12-31T00:18:34;12.10;99.90
59075;DHT22;44860;53.020;6.738;2022-12-31T00:21:07;12.20;99.90
59075;DHT22;44860;53.020;6.738;2022-12-31T00:23:33;12.20;99.90
59075;DHT22;44860;53.020;6.738;2022-12-31T00:26:07;12.10;99.90
59075;DHT22;44860;53.020;6.738;2022-12-31T00:28:34;12.10;99.90
59075;DHT22;44860;53.020;6.738;2022-12-31T00:31:05;12.10;99.90
59075;DHT22;44860;53.020;6.738;2022-12-31T00:33:31;12.10;99.90
59075;DHT22;44860;53.020;6.738;2022-12-31T00:36:07;12.10;99.90
59075;DHT22;44860;53.020;6.738;2022-12-31T00:38:34;12.10;99.90
59075;DHT22;44860;53.020;6.738;2022-12-31T00:41:00;12.10;99.90
59075;DHT22;44860;53.020;6.738;2022-12-31T00:43:26;12.10;99.90
59075;DHT22;44860;53.020;6.738;2022-12-31T00:45:51;12.10;99.90
59075;DHT22;44860;53.020;6.738;2022-12-31T00:48:17;12.10;99.90
59075;DHT22;44860;53.020;6.738;2022-12-31T00:50:44;12.10;99.90
59075;DHT22;44860;53.020;6.738;2022-12-31T00:53:09;12.10;99.90
59075;DHT22;44860;53.020;6.738;2022-12-31T00:55:35;12.10;99.90
59075;DHT22;44860;53.020;6.738;2022-12-31T00:58:01;12.10;99.90
59075;DHT22;44860;53.020;6.738;2022-12-31T01:00:26;12.10;99.90
59075;DHT22;44860;53.020;6.738;2022-12-31T01:02:52;12.10;99.90
59075;DHT22;44860;53.020;6.738;2022-12-31T01:05:18;12.10;99.90
59075;DHT22;44860;53.020;6.738;2022-12-31T01:07:43;12.10;99.90
59075;DHT22;44860;53.020;6.738;2022-12-31T01:10:09;12.10;99.90
59075;DHT22;44860;53.020;6.738;2022-12-31T01:12:35;12.10;99.90
59075;DHT22;44860;53.020;6.738;2022-12-31T01:15:00;12.10;99.90
59075;DHT22;44860;53.020;6.738;2022-12-31T01:17:26;12.10;99.90
59075;DHT22;44860;53.020;6.738;2022-12-31T01:19:52;12.10;99.90
59075;DHT22;44860;53.020;6.738;2022-12-31T01:22:18;12.10;99.90
59075;DHT22;44860;53.020;6.738;2022-12-31T01:24:43;12.10;99.90
59075;DHT22;44860;53.020;6.738;2022-12-31T01:27:09;12.10;99.90
59075;DHT22;44860;53.020;6.738;2022-12-31T01:29:34;12.10;99.90
59075;DHT22;44860;53.020;6.738;2022-12-31T01:32:00;12.10;99.90
59075;DHT22;44860;53.020;6.738;2022-12-31T01:34:26;12.10;99.90
59075;DHT22;44860;53.020;6.738;2022-12-31T01:36:51;12.10;99.90
59075;DHT22;44860;53.020;6.738;2022-12-31T01:39:17;12.10;99.90
59075;DHT22;44860;53.020;6.738;2022-12-31T01:41:44;12.10;99.90
59075;DHT22;44860;53.020;6.738;2022-12-31T01:46:45;12.10;99.90
59075;DHT22;44860;53.020;6.738;2022-12-31T01:49:23;12.20;99.90
59075;DHT22;44860;53.020;6.738;2022-12-31T01:51:56;12.10;99.90
59075;DHT22;44860;53.020;6.738;2022-12-31T01:54:26;12.10;99.90
59075;DHT22;44860;53.020;6.738;2022-12-31T01:56:54;12.10;99.90
59075;DHT22;44860;53.020;6.738;2022-12-31T01:59:21;12.10;99.90
59075;DHT22;44860;53.020;6.738;2022-12-31T02:01:49;12.10;99.90
59075;DHT22;44860;53.020;6.738;2022-12-31T02:04:20;12.10;99.90
59075;DHT22;44860;53.020;6.738;2022-12-31T02:06:56;12.10;99.90
59075;DHT22;44860;53.020;6.738;2022-12-31T02:09:22;12.10;99.90
59075;DHT22;44860;53.020;6.738;2022-12-31T02:11:48;12.00;99.90
59075;DHT22;44860;53.020;6.738;2022-12-31T02:14:17;12.00;99.90
59075;DHT22;44860;53.020;6.738;2022-12-31T02:17:33;12.00;99.90
59075;DHT22;44860;53.020;6.738;2022-12-31T02:30:22;12.00;99.90
59075;DHT22;44860;53.020;6.738;2022-12-31T02:36:04;12.00;99.90
59075;DHT22;44860;53.020;6.738;2022-12-31T02:38:36;12.00;99.90
59075;DHT22;44860;53.020;6.738;2022-12-31T02:41:03;12.00;99.90
59075;DHT22;44860;53.020;6.738;2022-12-31T02:43:29;12.00;99.90
59075;DHT22;44860;53.020;6.738;2022-12-31T02:46:23;11.90;99.90
59075;DHT22;44860;53.020;6.738;2022-12-31T02:48:56;11.90;99.90
59075;DHT22;44860;53.020;6.738;2022-12-31T03:02:14;11.80;99.90
59075;DHT22;44860;53.020;6.738;2022-12-31T03:04:53;11.80;99.90
59075;DHT22;44860;53.020;6.738;2022-12-31T03:09:46;11.70;99.90
59075;DHT22;44860;53.020;6.738;2022-12-31T03:12:12;11.70;99.90
59075;DHT22;44860;53.020;6.738;2022-12-31T03:14:57;11.70;99.90
59075;DHT22;44860;53.020;6.738;2022-12-31T03:17:23;11.70;99.90
59075;DHT22;44860;53.020;6.738;2022-12-31T03:19:50;11.70;99.90
59075;DHT22;44860;53.020;6.738;2022-12-31T03:22:37;11.70;99.90
59075;DHT22;44860;53.020;6.738;2022-12-31T03:25:11;11.60;99.90
59075;DHT22;44860;53.020;6.738;2022-12-31T03:27:55;11.60;99.90
59075;DHT22;44860;53.020;6.738;2022-12-31T03:30:22;11.60;99.90
59075;DHT22;44860;53.020;6.738;2022-12-31T03:32:48;11.60;99.90
59075;DHT22;44860;53.020;6.738;2022-12-31T03:35:16;11.60;99.90
59075;DHT22;44860;53.020;6.738;2022-12-31T03:37:42;11.50;99.90
59075;DHT22;44860;53.020;6.738;2022-12-31T03:40:10;11.50;99.90
59075;DHT22;44860;53.020;6.738;2022-12-31T03:42:37;11.50;99.90
59075;DHT22;44860;53.020;6.738;2022-12-31T03:45:03;11.50;99.90
59075;DHT22;44860;53.020;6.738;2022-12-31T03:47:29;11.50;99.90
59075;DHT22;44860;53.020;6.738;2022-12-31T03:49:54;11.50;99.90
59075;DHT22;44860;53.020;6.738;2022-12-31T03:52:20;11.40;99.90
59075;DHT22;44860;53.020;6.738;2022-12-31T03:54:46;11.40;99.90
59075;DHT22;44860;53.020;6.738;2022-12-31T03:57:12;11.40;99.90
59075;DHT22;44860;53.020;6.738;2022-12-31T03:59:37;11.40;99.90
59075;DHT22;44860;53.020;6.738;2022-12-31T04:02:03;11.40;99.90
59075;DHT22;44860;53.020;6.738;2022-12-31T04:04:29;11.40;99.90
59075;DHT22;44860;53.020;6.738;2022-12-31T04:06:55;11.30;99.90
59075;DHT22;44860;53.020;6.738;2022-12-31T04:09:20;11.30;99.90
59075;DHT22;44860;53.020;6.738;2022-12-31T04:11:46;11.30;99.90
59075;DHT22;44860;53.020;6.738;2022-12-31T04:14:12;11.30;99.90
59075;DHT22;44860;53.020;6.738;2022-12-31T04:16:37;11.30;99.90
59075;DHT22;44860;53.020;6.738;2022-12-31T04:19:03;11.30;99.90
59075;DHT22;44860;53.020;6.738;2022-12-31T04:21:29;11.30;99.90
59075;DHT22;44860;53.020;6.738;2022-12-31T04:23:54;11.40;99.90
59075;DHT22;44860;53.020;6.738;2022-12-31T04:26:20;11.30;99.90
59075;DHT22;44860;53.020;6.738;2022-12-31T04:28:46;11.30;99.90
59075;DHT22;44860;53.020;6.738;2022-12-31T04:31:11;11.30;99.90
59075;DHT22;44860;53.020;6.738;2022-12-31T04:33:37;11.30;99.90
59075;DHT22;44860;53.020;6.738;2022-12-31T04:36:05;11.30;99.90
59075;DHT22;44860;53.020;6.738;2022-12-31T04:38:31;11.40;99.90
59075;DHT22;44860;53.020;6.738;2022-12-31T04:40:57;11.30;99.90
59075;DHT22;44860;53.020;6.738;2022-12-31T04:46:15;11.40;99.90
59075;DHT22;44860;53.020;6.738;2022-12-31T04:48:41;11.30;99.90
59075;DHT22;44860;53.020;6.738;2022-12-31T04:51:07;11.30;99.90
59075;DHT22;44860;53.020;6.738;2022-12-31T04:53:33;11.40;99.90
59075;DHT22;44860;53.020;6.738;2022-12-31T04:55:59;11.40;99.90
59075;DHT22;44860;53.020;6.738;2022-12-31T04:58:24;11.40;99.90
59075;DHT22;44860;53.020;6.738;2022-12-31T05:00:51;11.30;99.90
59075;DHT22;44860;53.020;6.738;2022-12-31T05:03:20;11.30;99.90
59075;DHT22;44860;53.020;6.738;2022-12-31T05:05:47;11.30;99.90
59075;DHT22;44860;53.020;6.738;2022-12-31T05:08:15;11.30;99.90
59075;DHT22;44860;53.020;6.738;2022-12-31T05:10:43;11.30;99.90
59075;DHT22;44860;53.020;6.738;2022-12-31T05:13:09;11.30;99.90
59075;DHT22;44860;53.020;6.738;2022-12-31T05:15:35;11.30;99.90
59075;DHT22;44860;53.020;6.738;2022-12-31T05:18:01;11.30;99.90
59075;DHT22;44860;53.020;6.738;2022-12-31T05:20:26;11.40;99.90
59075;DHT22;44860;53.020;6.738;2022-12-31T05:22:52;11.30;99.90
59075;DHT22;44860;53.020;6.738;2022-12-31T05:25:18;11.30;99.90
59075;DHT22;44860;53.020;6.738;2022-12-31T05:27:43;11.30;99.90
59075;DHT22;44860;53.020;6.738;2022-12-31T05:30:10;11.30;99.90
59075;DHT22;44860;53.020;6.738;2022-12-31T05:32:36;11.30;99.90
59075;DHT22;44860;53.020;6.738;2022-12-31T05:35:01;11.30;99.90
59075;DHT22;44860;53.020;6.738;2022-12-31T05:37:28;11.30;99.90
59075;DHT22;44860;53.020;6.738;2022-12-31T05:39:54;11.30;99.90
59075;DHT22;44860;53.020;6.738;2022-12-31T05:42:20;11.30;99.90
59075;DHT22;44860;53.020;6.738;2022-12-31T05:44:46;11.30;99.90
59075;DHT22;44860;53.020;6.738;2022-12-31T05:47:13;11.30;99.90
59075;DHT22;44860;53.020;6.738;2022-12-31T05:49:39;11.30;99.90
59075;DHT22;44860;53.020;6.738;2022-12-31T05:52:04;11.30;99.90
59075;DHT22;44860;53.020;6.738;2022-12-31T05:54:31;11.30;99.90
59075;DHT22;44860;53.020;6.738;2022-12-31T05:56:57;11.40;99.90
59075;DHT22;44860;53.020;6.738;2022-12-31T05:59:22;11.30;99.90
59075;DHT22;44860;53.020;6.738;2022-12-31T06:01:48;11.30;99.90
59075;DHT22;44860;53.020;6.738;2022-12-31T06:04:14;11.30;99.90
59075;DHT22;44860;53.020;6.738;2022-12-31T06:06:39;11.30;99.90
59075;DHT22;44860;53.020;6.738;2022-12-31T06:09:05;11.40;99.90
59075;DHT22;44860;53.020;6.738;2022-12-31T06:11:31;11.40;99.90
59075;DHT22;44860;53.020;6.738;2022-12-31T06:13:56;11.40;99.90
59075;DHT22;44860;53.020;6.738;2022-12-31T06:16:23;11.40;99.90
59075;DHT22;44860;53.020;6.738;2022-12-31T06:18:52;11.40;99.90
59075;DHT22;44860;53.020;6.738;2022-12-31T06:21:20;11.40;99.90
59075;DHT22;44860;53.020;6.738;2022-12-31T06:23:46;11.40;99.90
59075;DHT22;44860;53.020;6.738;2022-12-31T06:26:12;11.40;99.90
59075;DHT22;44860;53.020;6.738;2022-12-31T06:28:38;11.30;99.90
59075;DHT22;44860;53.020;6.738;2022-12-31T06:31:06;11.30;99.90
59075;DHT22;44860;53.020;6.738;2022-12-31T06:33:32;11.30;99.90
59075;DHT22;44860;53.020;6.738;2022-12-31T06:36:00;11.30;99.90
59075;DHT22;44860;53.020;6.738;2022-12-31T06:38:27;11.30;99.90
59075;DHT22;44860;53.020;6.738;2022-12-31T06:40:54;11.30;99.90
59075;DHT22;44860;53.020;6.738;2022-12-31T06:43:20;11.30;99.90
59075;DHT22;44860;53.020;6.738;2022-12-31T06:45:46;11.30;99.90
59075;DHT22;44860;53.020;6.738;2022-12-31T06:48:11;11.30;99.90
59075;DHT22;44860;53.020;6.738;2022-12-31T06:50:37;11.30;99.90
59075;DHT22;44860;53.020;6.738;2022-12-31T06:53:03;11.30;99.90
59075;DHT22;44860;53.020;6.738;2022-12-31T06:55:29;11.20;99.90
59075;DHT22;44860;53.020;6.738;2022-12-31T06:57:55;11.20;99.90
59075;DHT22;44860;53.020;6.738;2022-12-31T07:00:21;11.20;99.90
59075;DHT22;44860;53.020;6.738;2022-12-31T07:02:53;11.20;99.90
59075;DHT22;44860;53.020;6.738;2022-12-31T07:05:48;11.20;99.90
59075;DHT22;44860;53.020;6.738;2022-12-31T07:08:46;11.20;99.90
59075;DHT22;44860;53.020;6.738;2022-12-31T07:11:45;11.20;99.90
59075;DHT22;44860;53.020;6.738;2022-12-31T07:14:35;11.20;99.90
59075;DHT22;44860;53.020;6.738;2022-12-31T07:17:34;11.10;99.90
59075;DHT22;44860;53.020;6.738;2022-12-31T07:20:10;11.10;99.90
59075;DHT22;44860;53.020;6.738;2022-12-31T07:22:36;11.20;99.90
59075;DHT22;44860;53.020;6.738;2022-12-31T07:25:02;11.10;99.90
59075;DHT22;44860;53.020;6.738;2022-12-31T07:27:48;11.10;99.90
59075;DHT22;44860;53.020;6.738;2022-12-31T07:30:20;11.10;99.90
59075;DHT22;44860;53.020;6.738;2022-12-31T07:38:07;11.10;99.90
59075;DHT22;44860;53.020;6.738;2022-12-31T07:43:17;11.10;99.90
59075;DHT22;44860;53.020;6.738;2022-12-31T07:48:39;11.10;99.90
59075;DHT22;44860;53.020;6.738;2022-12-31T07:51:05;11.10;99.90
59075;DHT22;44860;53.020;6.738;2022-12-31T07:53:31;11.10;99.90
59075;DHT22;44860;53.020;6.738;2022-12-31T07:55:59;11.10;99.90
59075;DHT22;44860;53.020;6.738;2022-12-31T07:58:46;11.10;99.90
59075;DHT22;44860;53.020;6.738;2022-12-31T08:01:22;11.10;99.90
59075;DHT22;44860;53.020;6.738;2022-12-31T08:06:45;11.20;99.90
59075;DHT22;44860;53.020;6.738;2022-12-31T08:12:01;11.20;99.90
59075;DHT22;44860;53.020;6.738;2022-12-31T08:14:28;11.20;99.90
59075;DHT22;44860;53.020;6.738;2022-12-31T08:16:54;11.20;99.90
59075;DHT22;44860;53.020;6.738;2022-12-31T08:19:30;11.30;99.90
59075;DHT22;44860;53.020;6.738;2022-12-31T08:25:22;11.30;99.90
59075;DHT22;44860;53.020;6.738;2022-12-31T08:28:09;11.30;99.90
59075;DHT22;44860;53.020;6.738;2022-12-31T08:33:23;11.30;99.90
59075;DHT22;44860;53.020;6.738;2022-12-31T08:38:25;11.30;99.90
59075;DHT22;44860;53.020;6.738;2022-12-31T08:46:27;11.40;99.90
59075;DHT22;44860;53.020;6.738;2022-12-31T08:48:55;11.40;99.90
59075;DHT22;44860;53.020;6.738;2022-12-31T08:51:23;11.50;99.90
59075;DHT22;44860;53.020;6.738;2022-12-31T08:53:50;11.60;99.90
59075;DHT22;44860;53.020;6.738;2022-12-31T08:57:13;11.50;99.90
59075;DHT22;44860;53.020;6.738;2022-12-31T08:59:52;11.60;99.90
59075;DHT22;44860;53.020;6.738;2022-12-31T09:05:46;11.70;99.90
59075;DHT22;44860;53.020;6.738;2022-12-31T09:08:10;11.70;99.90
59075;DHT22;44860;53.020;6.738;2022-12-31T09:13:36;11.80;99.90
59075;DHT22;44860;53.020;6.738;2022-12-31T09:16:43;11.80;99.90
59075;DHT22;44860;53.020;6.738;2022-12-31T09:19:12;11.90;99.90
59075;DHT22;44860;53.020;6.738;2022-12-31T09:21:43;11.90;99.90
59075;DHT22;44860;53.020;6.738;2022-12-31T09:24:13;12.00;99.90
59075;DHT22;44860;53.020;6.738;2022-12-31T09:27:02;12.10;99.90
59075;DHT22;44860;53.020;6.738;2022-12-31T09:30:02;12.20;99.90
59075;DHT22;44860;53.020;6.738;2022-12-31T09:37:54;12.30;99.90
59075;DHT22;44860;53.020;6.738;2022-12-31T09:51:35;12.50;99.90
59075;DHT22;44860;53.020;6.738;2022-12-31T09:54:39;12.50;99.90
59075;DHT22;44860;53.020;6.738;2022-12-31T09:59:58;12.60;99.90
59075;DHT22;44860;53.020;6.738;2022-12-31T10:11:15;12.70;99.90
59075;DHT22;44860;53.020;6.738;2022-12-31T10:16:51;12.80;99.90
59075;DHT22;44860;53.020;6.738;2022-12-31T10:19:42;12.80;99.90
59075;DHT22;44860;53.020;6.738;2022-12-31T10:30:35;13.00;99.90
59075;DHT22;44860;53.020;6.738;2022-12-31T10:36:07;13.00;99.90
59075;DHT22;44860;53.020;6.738;2022-12-31T10:38:49;13.00;99.90
59075;DHT22;44860;53.020;6.738;2022-12-31T10:41:58;13.10;99.90
59075;DHT22;44860;53.020;6.738;2022-12-31T10:59:04;13.30;99.90
59075;DHT22;44860;53.020;6.738;2022-12-31T11:01:47;13.20;99.90
59075;DHT22;44860;53.020;6.738;2022-12-31T11:07:12;13.30;99.90
59075;DHT22;44860;53.020;6.738;2022-12-31T11:10:06;13.30;99.90
59075;DHT22;44860;53.020;6.738;2022-12-31T11:18:18;13.40;99.90
59075;DHT22;44860;53.020;6.738;2022-12-31T11:26:41;13.40;99.90
59075;DHT22;44860;53.020;6.738;2022-12-31T11:37:40;13.50;99.90
59075;DHT22;44860;53.020;6.738;2022-12-31T11:40:14;13.40;99.90
59075;DHT22;44860;53.020;6.738;2022-12-31T11:43:09;13.50;99.90
59075;DHT22;44860;53.020;6.738;2022-12-31T11:57:26;13.40;99.90
59075;DHT22;44860;53.020;6.738;2022-12-31T11:59:56;13.40;99.90
59075;DHT22;44860;53.020;6.738;2022-12-31T12:02:35;13.30;99.90
59075;DHT22;44860;53.020;6.738;2022-12-31T12:05:04;13.30;99.90
59075;DHT22;44860;53.020;6.738;2022-12-31T12:07:31;13.30;99.90
59075;DHT22;44860;53.020;6.738;2022-12-31T12:09:59;13.30;99.90
59075;DHT22;44860;53.020;6.738;2022-12-31T12:12:37;13.30;99.90
59075;DHT22;44860;53.020;6.738;2022-12-31T12:15:06;13.30;99.90
59075;DHT22;44860;53.020;6.738;2022-12-31T12:17:33;13.30;99.90
59075;DHT22;44860;53.020;6.738;2022-12-31T12:20:14;13.30;99.90
59075;DHT22;44860;53.020;6.738;2022-12-31T12:22:50;13.40;99.90
59075;DHT22;44860;53.020;6.738;2022-12-31T12:25:21;13.40;99.90
59075;DHT22;44860;53.020;6.738;2022-12-31T12:27:47;13.30;99.90
59075;DHT22;44860;53.020;6.738;2022-12-31T12:30:22;13.30;99.90
59075;DHT22;44860;53.020;6.738;2022-12-31T12:32:59;13.40;99.90
59075;DHT22;44860;53.020;6.738;2022-12-31T12:35:31;13.40;99.90
59075;DHT22;44860;53.020;6.738;2022-12-31T12:40:24;13.40;99.90
59075;DHT22;44860;53.020;6.738;2022-12-31T12:42:52;13.50;99.90
59075;DHT22;44860;53.020;6.738;2022-12-31T12:45:21;13.50;99.90
59075;DHT22;44860;53.020;6.738;2022-12-31T12:47:49;13.50;99.90
59075;DHT22;44860;53.020;6.738;2022-12-31T12:50:23;13.50;99.90
59075;DHT22;44860;53.020;6.738;2022-12-31T13:00:37;13.60;99.90
59075;DHT22;44860;53.020;6.738;2022-12-31T13:16:54;13.70;99.90
59075;DHT22;44860;53.020;6.738;2022-12-31T13:22:10;13.80;99.90
59075;DHT22;44860;53.020;6.738;2022-12-31T13:27:22;13.80;99.90
59075;DHT22;44860;53.020;6.738;2022-12-31T13:29:54;13.80;99.90
59075;DHT22;44860;53.020;6.738;2022-12-31T13:32:27;13.70;99.90
59075;DHT22;44860;53.020;6.738;2022-12-31T13:34:57;13.70;99.90
59075;DHT22;44860;53.020;6.738;2022-12-31T13:37:36;13.70;99.90
59075;DHT22;44860;53.020;6.738;2022-12-31T13:40:16;13.70;99.90
59075;DHT22;44860;53.020;6.738;2022-12-31T13:42:52;13.70;99.90
59075;DHT22;44860;53.020;6.738;2022-12-31T13:45:24;13.60;99.90
59075;DHT22;44860;53.020;6.738;2022-12-31T13:47:56;13.60;99.90
59075;DHT22;44860;53.020;6.738;2022-12-31T13:50:28;13.60;99.90
59075;DHT22;44860;53.020;6.738;2022-12-31T13:52:57;13.50;99.90
59075;DHT22;44860;53.020;6.738;2022-12-31T13:55:36;13.50;99.90
59075;DHT22;44860;53.020;6.738;2022-12-31T14:01:27;13.40;99.90
59075;DHT22;44860;53.020;6.738;2022-12-31T14:04:14;13.30;99.90
59075;DHT22;44860;53.020;6.738;2022-12-31T14:07:08;13.30;99.90
59075;DHT22;44860;53.020;6.738;2022-12-31T14:09:36;13.30;99.90
59075;DHT22;44860;53.020;6.738;2022-12-31T14:12:31;13.30;99.90
59075;DHT22;44860;53.020;6.738;2022-12-31T14:18:11;13.30;99.90
59075;DHT22;44860;53.020;6.738;2022-12-31T14:20:51;13.40;99.90
59075;DHT22;44860;53.020;6.738;2022-12-31T14:23:25;13.40;99.90
59075;DHT22;44860;53.020;6.738;2022-12-31T14:26:00;13.40;99.90
59075;DHT22;44860;53.020;6.738;2022-12-31T14:28:34;13.40;99.90
59075;DHT22;44860;53.020;6.738;2022-12-31T14:34:05;13.50;99.90
59075;DHT22;44860;53.020;6.738;2022-12-31T14:50:31;13.50;99.90
59075;DHT22;44860;53.020;6.738;2022-12-31T14:55:30;13.50;99.90
59075;DHT22;44860;53.020;6.738;2022-12-31T14:58:02;13.50;99.90
59075;DHT22;44860;53.020;6.738;2022-12-31T15:00:35;13.60;99.90
59075;DHT22;44860;53.020;6.738;2022-12-31T15:03:22;13.60;99.90
59075;DHT22;44860;53.020;6.738;2022-12-31T15:05:56;13.70;99.90
59075;DHT22;44860;53.020;6.738;2022-12-31T15:11:28;13.60;99.90
59075;DHT22;44860;53.020;6.738;2022-12-31T15:24:46;13.80;99.90
59075;DHT22;44860;53.020;6.738;2022-12-31T15:30:00;13.80;99.90
59075;DHT22;44860;53.020;6.738;2022-12-31T15:32:40;13.80;99.90
59075;DHT22;44860;53.020;6.738;2022-12-31T15:37:58;13.80;99.90
59075;DHT22;44860;53.020;6.738;2022-12-31T15:40:25;13.80;99.90
59075;DHT22;44860;53.020;6.738;2022-12-31T15:43:12;13.80;99.90
59075;DHT22;44860;53.020;6.738;2022-12-31T15:45:40;13.80;99.90
59075;DHT22;44860;53.020;6.738;2022-12-31T15:48:16;13.80;99.90
59075;DHT22;44860;53.020;6.738;2022-12-31T15:50:43;13.80;99.90
59075;DHT22;44860;53.020;6.738;2022-12-31T15:53:28;13.80;99.90
59075;DHT22;44860;53.020;6.738;2022-12-31T15:55:55;13.80;99.90
59075;DHT22;44860;53.020;6.738;2022-12-31T15:58:25;13.90;99.90
59075;DHT22;44860;53.020;6.738;2022-12-31T16:03:36;13.80;99.90
59075;DHT22;44860;53.020;6.738;2022-12-31T16:06:11;13.90;99.90
59075;DHT22;44860;53.020;6.738;2022-12-31T16:08:42;13.80;99.90
59075;DHT22;44860;53.020;6.738;2022-12-31T16:11:09;13.90;99.90
59075;DHT22;44860;53.020;6.738;2022-12-31T16:13:39;13.90;99.90
59075;DHT22;44860;53.020;6.738;2022-12-31T16:16:15;13.90;99.90
59075;DHT22;44860;53.020;6.738;2022-12-31T16:18:44;13.90;99.90
59075;DHT22;44860;53.020;6.738;2022-12-31T16:21:31;13.80;99.90
59075;DHT22;44860;53.020;6.738;2022-12-31T16:24:03;13.80;99.90
59075;DHT22;44860;53.020;6.738;2022-12-31T16:26:35;13.80;99.90
59075;DHT22;44860;53.020;6.738;2022-12-31T16:29:03;13.80;99.90
59075;DHT22;44860;53.020;6.738;2022-12-31T16:31:29;13.80;99.90
59075;DHT22;44860;53.020;6.738;2022-12-31T16:34:10;13.80;99.90
59075;DHT22;44860;53.020;6.738;2022-12-31T16:36:36;13.80;99.90
59075;DHT22;44860;53.020;6.738;2022-12-31T16:39:26;13.80;99.90
59075;DHT22;44860;53.020;6.738;2022-12-31T16:42:07;13.80;99.90
59075;DHT22;44860;53.020;6.738;2022-12-31T16:44:33;13.80;99.90
59075;DHT22;44860;53.020;6.738;2022-12-31T16:47:00;13.80;99.90
59075;DHT22;44860;53.020;6.738;2022-12-31T16:49:29;13.80;99.90
59075;DHT22;44860;53.020;6.738;2022-12-31T16:51:59;13.80;99.90
59075;DHT22;44860;53.020;6.738;2022-12-31T16:54:34;13.70;99.90
59075;DHT22;44860;53.020;6.738;2022-12-31T16:57:02;13.70;99.90
59075;DHT22;44860;53.020;6.738;2022-12-31T16:59:40;13.70;99.90
59075;DHT22;44860;53.020;6.738;2022-12-31T17:02:17;13.70;99.90
59075;DHT22;44860;53.020;6.738;2022-12-31T17:04:48;13.60;99.90
59075;DHT22;44860;53.020;6.738;2022-12-31T17:12:27;13.60;99.90
59075;DHT22;44860;53.020;6.738;2022-12-31T17:15:00;13.60;99.90
59075;DHT22;44860;53.020;6.738;2022-12-31T17:17:26;13.50;99.90
59075;DHT22;44860;53.020;6.738;2022-12-31T17:19:58;13.60;99.90
59075;DHT22;44860;53.020;6.738;2022-12-31T17:22:27;13.50;99.90
59075;DHT22;44860;53.020;6.738;2022-12-31T17:27:31;13.50;99.90
59075;DHT22;44860;53.020;6.738;2022-12-31T17:30:34;13.50;99.90
59075;DHT22;44860;53.020;6.738;2022-12-31T17:35:43;13.50;99.90
59075;DHT22;44860;53.020;6.738;2022-12-31T17:43:18;13.50;99.90
59075;DHT22;44860;53.020;6.738;2022-12-31T17:45:45;13.50;99.90
59075;DHT22;44860;53.020;6.738;2022-12-31T17:48:13;13.50;99.90
59075;DHT22;44860;53.020;6.738;2022-12-31T17:53:12;13.50;99.90
59075;DHT22;44860;53.020;6.738;2022-12-31T17:55:39;13.50;99.90
59075;DHT22;44860;53.020;6.738;2022-12-31T17:58:06;13.60;99.90
59075;DHT22;44860;53.020;6.738;2022-12-31T18:00:33;13.60;99.90
59075;DHT22;44860;53.020;6.738;2022-12-31T18:03:01;13.60;99.90
59075;DHT22;44860;53.020;6.738;2022-12-31T18:05:27;13.60;99.90
59075;DHT22;44860;53.020;6.738;2022-12-31T18:07:52;13.60;99.90
59075;DHT22;44860;53.020;6.738;2022-12-31T18:10:20;13.70;99.90
59075;DHT22;44860;53.020;6.738;2022-12-31T18:12:48;13.60;99.90
59075;DHT22;44860;53.020;6.738;2022-12-31T18:15:21;13.70;99.90
59075;DHT22;44860;53.020;6.738;2022-12-31T18:17:48;13.70;99.90
59075;DHT22;44860;53.020;6.738;2022-12-31T18:20:14;13.80;99.90
59075;DHT22;44860;53.020;6.738;2022-12-31T18:22:41;13.70;99.90
59075;DHT22;44860;53.020;6.738;2022-12-31T18:25:20;13.80;99.90
59075;DHT22;44860;53.020;6.738;2022-12-31T18:27:48;13.80;99.90
59075;DHT22;44860;53.020;6.738;2022-12-31T18:30:14;13.70;99.90
59075;DHT22;44860;53.020;6.738;2022-12-31T18:32:43;13.70;99.90
59075;DHT22;44860;53.020;6.738;2022-12-31T18:35:15;13.70;99.90
59075;DHT22;44860;53.020;6.738;2022-12-31T18:37:42;13.70;99.90
59075;DHT22;44860;53.020;6.738;2022-12-31T18:40:09;13.70;99.90
59075;DHT22;44860;53.020;6.738;2022-12-31T18:42:35;13.70;99.90
59075;DHT22;44860;53.020;6.738;2022-12-31T18:45:01;13.70;99.90
59075;DHT22;44860;53.020;6.738;2022-12-31T18:47:27;13.70;99.90
59075;DHT22;44860;53.020;6.738;2022-12-31T18:49:52;13.70;99.90
59075;DHT22;44860;53.020;6.738;2022-12-31T18:52:20;13.70;99.90
59075;DHT22;44860;53.020;6.738;2022-12-31T18:54:47;13.70;99.90
59075;DHT22;44860;53.020;6.738;2022-12-31T18:57:14;13.70;99.90
59075;DHT22;44860;53.020;6.738;2022-12-31T18:59:40;13.70;99.90
59075;DHT22;44860;53.020;6.738;2022-12-31T19:02:13;13.80;99.90
59075;DHT22;44860;53.020;6.738;2022-12-31T19:04:39;13.80;99.90
59075;DHT22;44860;53.020;6.738;2022-12-31T19:07:05;13.80;99.90
59075;DHT22;44860;53.020;6.738;2022-12-31T19:09:31;13.80;99.90
59075;DHT22;44860;53.020;6.738;2022-12-31T19:11:56;13.90;99.90
59075;DHT22;44860;53.020;6.738;2022-12-31T19:14:23;13.90;99.90
59075;DHT22;44860;53.020;6.738;2022-12-31T19:16:50;13.90;99.90
59075;DHT22;44860;53.020;6.738;2022-12-31T19:19:16;13.90;99.90
59075;DHT22;44860;53.020;6.738;2022-12-31T19:21:42;13.90;99.90
59075;DHT22;44860;53.020;6.738;2022-12-31T19:24:23;13.90;99.90
59075;DHT22;44860;53.020;6.738;2022-12-31T19:26:51;14.00;99.90
59075;DHT22;44860;53.020;6.738;2022-12-31T19:29:21;13.90;99.90
59075;DHT22;44860;53.020;6.738;2022-12-31T19:31:47;13.90;99.90
59075;DHT22;44860;53.020;6.738;2022-12-31T19:34:13;13.90;99.90
59075;DHT22;44860;53.020;6.738;2022-12-31T19:36:40;14.00;99.90
59075;DHT22;44860;53.020;6.738;2022-12-31T19:39:08;13.90;99.90
59075;DHT22;44860;53.020;6.738;2022-12-31T19:41:34;14.00;99.90
59075;DHT22;44860;53.020;6.738;2022-12-31T19:44:00;13.90;99.90
59075;DHT22;44860;53.020;6.738;2022-12-31T19:46:26;14.00;99.90
59075;DHT22;44860;53.020;6.738;2022-12-31T19:48:52;14.00;99.90
59075;DHT22;44860;53.020;6.738;2022-12-31T19:51:19;14.00;99.90
59075;DHT22;44860;53.020;6.738;2022-12-31T19:53:46;14.00;99.90
59075;DHT22;44860;53.020;6.738;2022-12-31T19:56:15;14.00;99.90
59075;DHT22;44860;53.020;6.738;2022-12-31T19:58:41;14.00;99.90
59075;DHT22;44860;53.020;6.738;2022-12-31T20:01:07;14.00;99.90
59075;DHT22;44860;53.020;6.738;2022-12-31T20:03:33;14.10;99.90
59075;DHT22;44860;53.020;6.738;2022-12-31T20:06:05;14.10;99.90
59075;DHT22;44860;53.020;6.738;2022-12-31T20:08:32;14.10;99.90
59075;DHT22;44860;53.020;6.738;2022-12-31T20:11:09;14.10;99.90